createdAt,value
2022-12-28T00:03:35.602Z,3.21
2022-12-28T00:08:37.992Z,3.23
2022-12-28T00:13:45.327Z,3.23
2022-12-28T00:18:47.107Z,3.14
2022-12-28T00:23:51.121Z,2.98
2022-12-28T00:28:56.927Z,2.82
2022-12-28T00:34:05.905Z,2.67
2022-12-28T00:39:08.638Z,2.53
2022-12-28T00:44:10.403Z,2.39
2022-12-28T00:49:12.311Z,2.27
2022-12-28T00:54:14.071Z,2.16
2022-12-28T00:59:15.818Z,2.11
2022-12-28T01:04:17.487Z,2.06
2022-12-28T01:09:19.193Z,2.01
2022-12-28T01:14:21.517Z,1.98
2022-12-28T01:19:23.562Z,1.94
2022-12-28T01:24:25.406Z,1.89
2022-12-28T01:29:27.074Z,1.86
2022-12-28T01:34:30.202Z,1.82
2022-12-28T01:39:31.887Z,1.77
2022-12-28T01:44:42.217Z,1.74
2022-12-28T01:49:56.183Z,1.72
2022-12-28T01:55:07.159Z,1.68
2022-12-28T02:00:12.836Z,1.64
2022-12-28T02:05:15.729Z,1.61
2022-12-28T02:10:41.591Z,1.57
2022-12-28T02:15:44.316Z,1.55
2022-12-28T02:21:05.994Z,1.52
2022-12-28T02:26:42.191Z,1.50
2022-12-28T02:31:46.846Z,1.48
2022-12-28T02:36:59.570Z,1.46
2022-12-28T02:42:03.577Z,1.45
2022-12-28T02:47:33.131Z,1.44
2022-12-28T02:52:51.533Z,1.45
2022-12-28T02:58:23.668Z,1.44
2022-12-28T03:03:41.299Z,1.45
2022-12-28T03:09:00.928Z,1.45
2022-12-28T03:14:08.209Z,1.48
2022-12-28T03:19:30.254Z,1.47
2022-12-28T03:24:55.959Z,1.49
2022-12-28T03:30:27.067Z,1.50
2022-12-28T03:35:56.421Z,1.54
2022-12-28T03:41:07.072Z,1.55
2022-12-28T03:46:16.437Z,1.55
2022-12-28T03:51:22.697Z,1.57
2022-12-28T03:56:27.464Z,1.63
2022-12-28T04:01:32.411Z,1.66
2022-12-28T04:06:34.975Z,1.70
2022-12-28T04:11:37.446Z,1.74
2022-12-28T04:16:39.780Z,1.79
2022-12-28T04:21:41.589Z,1.80
2022-12-28T04:26:43.448Z,1.83
2022-12-28T04:31:45.938Z,1.85
2022-12-28T04:36:49.679Z,1.88
2022-12-28T04:41:53.330Z,1.89
2022-12-28T04:46:55.017Z,1.90
2022-12-28T04:51:57.028Z,1.93
2022-12-28T04:56:58.774Z,1.92
2022-12-28T05:02:00.804Z,1.92
2022-12-28T05:07:02.793Z,1.92
2022-12-28T05:12:05.025Z,1.92
2022-12-28T05:17:06.716Z,1.92
2022-12-28T05:22:12.927Z,1.89
2022-12-28T05:27:15.090Z,1.86
2022-12-28T05:32:16.847Z,1.85
2022-12-28T05:37:22.140Z,1.82
2022-12-28T05:42:24.381Z,1.79
2022-12-28T05:47:26.083Z,1.77
2022-12-28T05:52:28.897Z,1.76
2022-12-28T05:57:30.779Z,1.74
2022-12-28T06:02:32.536Z,1.75
2022-12-28T06:07:34.313Z,1.76
2022-12-28T06:12:36.139Z,1.78
2022-12-28T06:17:38.020Z,1.81
2022-12-28T06:22:39.713Z,1.86
2022-12-28T06:27:41.345Z,1.87
2022-12-28T06:32:43.020Z,1.92
2022-12-28T06:37:47.816Z,1.98
2022-12-28T06:42:49.496Z,2.05
2022-12-28T06:47:52.550Z,2.10
2022-12-28T06:52:54.211Z,2.17
2022-12-28T06:57:56.003Z,2.27
2022-12-28T07:02:57.925Z,2.44
2022-12-28T07:07:59.665Z,2.60
2022-12-28T07:13:09.939Z,2.78
2022-12-28T07:18:11.619Z,2.92
2022-12-28T07:23:13.270Z,3.05
2022-12-28T07:28:14.944Z,3.15
2022-12-28T07:33:16.821Z,3.23
2022-12-28T07:38:21.518Z,3.32
2022-12-28T07:43:23.829Z,3.40
2022-12-28T07:48:25.492Z,3.50
2022-12-28T07:53:27.364Z,3.60
2022-12-28T07:58:29.113Z,3.73
2022-12-28T08:03:30.794Z,3.85
2022-12-28T08:08:38.571Z,3.95
2022-12-28T08:13:41.717Z,4.07
2022-12-28T08:18:43.451Z,4.21
2022-12-28T08:23:45.823Z,4.34
2022-12-28T08:28:49.659Z,4.48
2022-12-28T08:33:53.181Z,4.65
2022-12-28T08:38:55.485Z,4.84
2022-12-28T08:43:58.006Z,4.97
2022-12-28T08:49:00.645Z,5.05
2022-12-28T08:54:03.843Z,5.10
2022-12-28T08:59:06.181Z,5.14
2022-12-28T09:04:16.348Z,5.18
2022-12-28T09:09:19.951Z,5.25
2022-12-28T09:14:24.103Z,5.32
2022-12-28T09:19:26.374Z,5.31
2022-12-28T09:24:28.132Z,5.29
2022-12-28T09:29:29.921Z,5.34
2022-12-28T09:34:36.225Z,5.41
2022-12-28T09:39:38.927Z,5.47
2022-12-28T09:45:06.562Z,5.49
2022-12-28T09:50:29.967Z,5.52
2022-12-28T09:55:39.899Z,5.62
2022-12-28T10:00:45.836Z,5.70
2022-12-28T10:05:48.449Z,5.75
2022-12-28T10:10:51.944Z,5.77
2022-12-28T10:15:54.158Z,5.79
2022-12-28T10:20:56.873Z,5.85
2022-12-28T10:26:01.191Z,5.96
2022-12-28T10:31:07.341Z,6.08
2022-12-28T10:36:14.232Z,6.23
2022-12-28T10:41:18.545Z,6.42
2022-12-28T10:46:23.279Z,6.53
2022-12-28T10:51:31.554Z,6.69
2022-12-28T10:56:44.343Z,6.86
2022-12-28T11:01:46.471Z,6.97
2022-12-28T11:06:53.068Z,7.15
2022-12-28T11:12:11.261Z,7.41
2022-12-28T11:17:21.686Z,7.72
2022-12-28T11:22:28.023Z,8.04
2022-12-28T11:27:29.685Z,8.36
2022-12-28T11:32:37.955Z,8.53
2022-12-28T11:37:56.936Z,8.52
2022-12-28T11:42:58.688Z,8.49
2022-12-28T11:48:39.432Z,8.52
2022-12-28T11:53:44.520Z,8.51
2022-12-28T11:59:01.151Z,8.32
2022-12-28T12:04:05.817Z,8.10
2022-12-28T12:09:29.432Z,7.81
2022-12-28T12:14:53.786Z,7.53
2022-12-28T12:20:03.022Z,7.31
2022-12-28T12:25:18.295Z,7.22
2022-12-28T12:30:22.442Z,7.21
2022-12-28T12:35:35.273Z,7.22
2022-12-28T12:40:45.736Z,7.23
2022-12-28T12:45:47.356Z,7.23
2022-12-28T12:50:52.128Z,7.22
2022-12-28T12:56:24.645Z,7.14
2022-12-28T13:02:00.592Z,7.07
2022-12-28T13:07:05.262Z,7.16
2022-12-28T13:12:14.805Z,7.54
2022-12-28T13:17:22.145Z,7.71
2022-12-28T13:22:32.455Z,7.57
2022-12-28T13:27:36.150Z,7.46
2022-12-28T13:32:39.483Z,7.36
2022-12-28T13:37:41.204Z,7.28
2022-12-28T13:43:03.034Z,7.25
2022-12-28T13:48:05.514Z,7.23
2022-12-28T13:53:21.904Z,7.34
2022-12-28T13:58:29.568Z,7.30
2022-12-28T14:03:37.665Z,7.20
2022-12-28T14:08:41.971Z,7.09
2022-12-28T14:13:44.970Z,6.91
2022-12-28T14:18:47.400Z,6.64
2022-12-28T14:23:49.377Z,6.33
2022-12-28T14:28:54.746Z,6.07
2022-12-28T14:34:00.236Z,5.84
2022-12-28T14:39:04.952Z,5.67
2022-12-28T14:44:16.012Z,5.58
2022-12-28T14:49:28.341Z,5.49
2022-12-28T14:54:30.710Z,5.38
2022-12-28T14:59:39.521Z,5.31
2022-12-28T15:04:41.493Z,5.26
2022-12-28T15:09:43.153Z,5.24
2022-12-28T15:14:45.420Z,5.19
2022-12-28T15:19:47.089Z,5.16
2022-12-28T15:24:49.054Z,5.11
2022-12-28T15:30:06.887Z,5.08
2022-12-28T15:35:10.143Z,5.05
2022-12-28T15:40:11.943Z,5.02
2022-12-28T15:45:15.492Z,5.00
2022-12-28T15:50:18.262Z,5.03
2022-12-28T15:55:19.976Z,5.06
2022-12-28T16:00:21.767Z,5.06
2022-12-28T16:05:23.424Z,5.04
2022-12-28T16:10:25.152Z,5.03
2022-12-28T16:15:28.180Z,5.04
2022-12-28T16:20:29.932Z,5.04
2022-12-28T16:25:31.698Z,5.05
2022-12-28T16:30:48.767Z,5.08
2022-12-28T16:35:54.559Z,5.08
2022-12-28T16:41:00.972Z,5.10
2022-12-28T16:46:07.206Z,5.17
2022-12-28T16:51:09.446Z,5.21
2022-12-28T16:56:11.065Z,5.23
2022-12-28T17:01:13.018Z,5.25
2022-12-28T17:06:16.591Z,5.27
2022-12-28T17:11:19.162Z,5.27
2022-12-28T17:16:20.956Z,5.25
2022-12-28T17:21:23.394Z,5.26
2022-12-28T17:26:25.898Z,5.27
2022-12-28T17:31:28.363Z,5.26
2022-12-28T17:36:30.043Z,5.26
2022-12-28T17:41:33.412Z,5.27
2022-12-28T17:46:40.678Z,5.27
2022-12-28T17:51:43.511Z,5.27
2022-12-28T17:56:45.207Z,5.26
2022-12-28T18:01:47.059Z,5.24
2022-12-28T18:06:48.792Z,5.20
2022-12-28T18:11:50.899Z,5.21
2022-12-28T18:16:54.570Z,5.21
2022-12-28T18:21:56.493Z,5.24
2022-12-28T18:26:58.212Z,5.26
2022-12-28T18:31:59.955Z,5.28
2022-12-28T18:37:01.762Z,5.35
2022-12-28T18:42:04.096Z,5.44
2022-12-28T18:47:06.363Z,5.51
2022-12-28T18:52:08.379Z,5.53
2022-12-28T18:57:10.563Z,5.49
2022-12-28T19:02:18.919Z,5.42
2022-12-28T19:07:21.362Z,5.35
2022-12-28T19:12:23.024Z,5.29
2022-12-28T19:17:24.759Z,5.21
2022-12-28T19:22:26.896Z,5.12
2022-12-28T19:27:28.636Z,5.05
2022-12-28T19:32:30.829Z,4.96
2022-12-28T19:37:34.271Z,4.88
2022-12-28T19:42:36.104Z,4.78
2022-12-28T19:47:37.845Z,4.70
2022-12-28T19:52:39.501Z,4.63
2022-12-28T19:57:41.383Z,4.58
2022-12-28T20:02:43.258Z,4.52
2022-12-28T20:07:45.132Z,4.48
2022-12-28T20:12:51.220Z,4.47
2022-12-28T20:17:53.096Z,4.46
2022-12-28T20:22:54.773Z,4.42
2022-12-28T20:27:56.510Z,4.39
2022-12-28T20:32:58.162Z,4.36
2022-12-28T20:37:59.801Z,4.36
2022-12-28T20:43:20.207Z,4.41
2022-12-28T20:48:22.165Z,4.51
2022-12-28T20:53:24.597Z,4.59
2022-12-28T20:58:27.289Z,4.63
2022-12-28T21:03:29.012Z,4.60
2022-12-28T21:08:31.487Z,4.47
2022-12-28T21:13:33.490Z,4.33
2022-12-28T21:18:36.827Z,4.20
2022-12-28T21:23:38.530Z,4.09
2022-12-28T21:28:40.544Z,4.00
2022-12-28T21:33:42.688Z,3.92
2022-12-28T21:38:46.831Z,3.85
2022-12-28T21:43:48.453Z,3.80
2022-12-28T21:48:50.156Z,3.74
2022-12-28T21:53:52.262Z,3.72
2022-12-28T21:58:55.189Z,3.67
2022-12-28T22:04:15.266Z,3.62
2022-12-28T22:09:39.020Z,3.59
2022-12-28T22:14:41.167Z,3.55
2022-12-28T22:19:43.447Z,3.52
2022-12-28T22:24:45.086Z,3.49
2022-12-28T22:29:46.758Z,3.47
2022-12-28T22:34:48.550Z,3.53
2022-12-28T22:39:50.373Z,3.58
2022-12-28T22:44:52.489Z,3.60
2022-12-28T22:49:54.973Z,3.62
2022-12-28T22:54:56.611Z,3.65
2022-12-28T22:59:58.371Z,3.67
2022-12-28T23:05:00.160Z,3.69
2022-12-28T23:10:02.142Z,3.70
2022-12-28T23:15:19.118Z,3.71
2022-12-28T23:20:39.645Z,3.72
2022-12-28T23:26:00.247Z,3.71
2022-12-28T23:31:02.147Z,3.71
2022-12-28T23:36:04.553Z,3.75
2022-12-28T23:41:25.388Z,3.78
2022-12-28T23:46:27.044Z,3.77
2022-12-28T23:51:28.762Z,3.79
2022-12-28T23:56:30.526Z,3.83
